createdAt,value
2018-07-08T00:00:17.306Z,16.80
2018-07-08T00:02:45.972Z,16.80
2018-07-08T00:05:14.596Z,16.80
2018-07-08T00:07:43.241Z,16.70
2018-07-08T00:10:11.868Z,16.70
2018-07-08T00:12:40.482Z,16.60
2018-07-08T00:15:09.079Z,16.60
2018-07-08T00:17:37.696Z,16.60
2018-07-08T00:20:06.530Z,16.50
2018-07-08T00:22:35.106Z,16.50
2018-07-08T00:25:03.775Z,16.40
2018-07-08T00:27:32.375Z,16.40
2018-07-08T00:30:00.948Z,16.40
2018-07-08T00:32:29.542Z,16.30
2018-07-08T00:34:58.134Z,16.30
2018-07-08T00:37:26.726Z,16.30
2018-07-08T00:39:55.449Z,16.20
2018-07-08T00:42:23.966Z,16.20
2018-07-08T00:44:52.682Z,16.20
2018-07-08T00:47:21.266Z,16.20
2018-07-08T00:49:49.846Z,16.10
2018-07-08T00:52:18.409Z,16.10
2018-07-08T00:54:47.014Z,16.10
2018-07-08T00:57:15.609Z,16.10
2018-07-08T00:59:44.222Z,16.10
2018-07-08T01:02:12.829Z,16.10
2018-07-08T01:04:41.421Z,16.10
2018-07-08T01:07:10.078Z,16.00
2018-07-08T01:09:38.785Z,16.10
2018-07-08T01:12:07.414Z,16.10
2018-07-08T01:14:35.969Z,16.00
2018-07-08T01:17:04.511Z,16.00
2018-07-08T01:19:33.133Z,16.00
2018-07-08T01:22:01.779Z,16.00
2018-07-08T01:24:30.289Z,16.00
2018-07-08T01:26:58.921Z,15.90
2018-07-08T01:29:27.568Z,15.90
2018-07-08T01:31:56.167Z,15.90
2018-07-08T01:34:24.809Z,15.90
2018-07-08T01:36:53.364Z,15.90
2018-07-08T01:39:21.918Z,15.80
2018-07-08T01:41:50.527Z,15.80
2018-07-08T01:44:19.121Z,15.80
2018-07-08T01:46:47.713Z,15.70
2018-07-08T01:49:16.390Z,15.70
2018-07-08T01:51:45.046Z,15.70
2018-07-08T01:54:13.693Z,15.60
2018-07-08T01:56:42.360Z,15.60
2018-07-08T01:59:10.959Z,15.50
2018-07-08T02:01:39.898Z,15.50
2018-07-08T02:04:08.499Z,15.50
2018-07-08T02:06:36.996Z,15.50
2018-07-08T02:09:05.802Z,15.40
2018-07-08T02:11:34.506Z,15.40
2018-07-08T02:16:31.354Z,15.30
2018-07-08T02:19:00.046Z,15.20
2018-07-08T02:21:28.749Z,15.20
2018-07-08T02:23:57.430Z,15.20
2018-07-08T02:26:26.094Z,15.10
2018-07-08T02:28:54.769Z,15.10
2018-07-08T02:31:23.385Z,15.00
2018-07-08T02:33:52.044Z,15.00
2018-07-08T02:38:48.964Z,15.00
2018-07-08T02:41:17.866Z,14.90
2018-07-08T02:43:46.504Z,14.90
2018-07-08T02:46:15.066Z,14.90
2018-07-08T02:48:43.775Z,14.80
2018-07-08T02:51:12.396Z,14.80
2018-07-08T02:53:41.060Z,14.80
2018-07-08T02:56:09.660Z,14.80
2018-07-08T02:58:38.388Z,14.80
2018-07-08T03:03:35.358Z,14.70
2018-07-08T03:06:04.020Z,14.70
2018-07-08T03:08:32.624Z,14.70
2018-07-08T03:11:01.228Z,14.60
2018-07-08T03:13:29.842Z,14.60
2018-07-08T03:15:58.656Z,14.60
2018-07-08T03:18:27.287Z,14.60
2018-07-08T03:20:55.886Z,14.60
2018-07-08T03:23:24.413Z,14.60
2018-07-08T03:25:53.038Z,14.60
2018-07-08T03:30:49.822Z,14.60
2018-07-08T03:33:18.454Z,14.60
2018-07-08T03:35:47.098Z,14.60
2018-07-08T03:38:15.677Z,14.60
2018-07-08T03:40:44.334Z,14.60
2018-07-08T03:43:13.574Z,14.60
2018-07-08T03:45:42.270Z,14.60
2018-07-08T03:48:10.854Z,14.60
2018-07-08T03:50:40.638Z,14.60
2018-07-08T03:53:09.472Z,14.60
2018-07-08T03:55:38.185Z,14.60
2018-07-08T03:58:06.886Z,14.50
2018-07-08T04:00:35.428Z,14.50
2018-07-08T04:03:04.036Z,14.60
2018-07-08T04:05:32.542Z,14.60
2018-07-08T04:08:01.462Z,14.70
2018-07-08T04:10:33.694Z,14.70
2018-07-08T04:13:05.225Z,14.80
2018-07-08T04:15:34.467Z,14.80
2018-07-08T04:18:07.652Z,14.90
2018-07-08T04:20:38.557Z,14.90
2018-07-08T04:23:07.584Z,15.00
2018-07-08T04:25:36.169Z,15.00
2018-07-08T04:28:05.115Z,15.10
2018-07-08T04:30:33.649Z,15.10
2018-07-08T04:33:02.373Z,15.20
2018-07-08T04:35:30.959Z,15.20
2018-07-08T04:38:00.108Z,15.30
2018-07-08T04:40:28.821Z,15.30
2018-07-08T04:42:57.518Z,15.30
2018-07-08T04:45:26.065Z,15.40
2018-07-08T04:47:54.630Z,15.40
2018-07-08T04:50:23.223Z,15.50
2018-07-08T04:52:51.944Z,15.50
2018-07-08T04:55:20.499Z,15.60
2018-07-08T04:57:49.070Z,15.70
2018-07-08T05:00:17.750Z,15.70
2018-07-08T05:02:46.336Z,15.80
2018-07-08T05:05:15.796Z,15.80
2018-07-08T05:07:44.332Z,15.90
2018-07-08T05:12:41.202Z,16.00
2018-07-08T05:15:09.875Z,16.10
2018-07-08T05:17:38.419Z,16.10
2018-07-08T05:20:07.078Z,16.20
2018-07-08T05:22:35.667Z,16.30
2018-07-08T05:25:05.358Z,16.40
2018-07-08T05:27:33.935Z,16.40
2018-07-08T05:30:02.847Z,16.40
2018-07-08T05:32:31.367Z,16.40
2018-07-08T05:35:00.022Z,16.50
2018-07-08T05:37:28.621Z,16.50
2018-07-08T05:39:57.712Z,16.50
2018-07-08T05:42:26.335Z,16.60
2018-07-08T05:44:55.075Z,16.60
2018-07-08T05:47:23.701Z,16.60
2018-07-08T05:49:52.267Z,16.70
2018-07-08T05:52:21.105Z,16.70
2018-07-08T05:54:49.611Z,16.70
2018-07-08T05:57:18.299Z,16.80
2018-07-08T05:59:46.980Z,16.80
2018-07-08T06:02:15.807Z,16.90
2018-07-08T06:04:44.363Z,17.00
2018-07-08T06:07:13.062Z,17.00
2018-07-08T06:09:42.087Z,17.20
2018-07-08T06:12:10.754Z,17.30
2018-07-08T06:14:39.363Z,17.40
2018-07-08T06:17:08.003Z,17.60
2018-07-08T06:19:36.711Z,17.70
2018-07-08T06:22:05.391Z,17.80
2018-07-08T06:24:34.032Z,17.90
2018-07-08T06:27:02.663Z,18.00
2018-07-08T06:29:31.226Z,18.20
2018-07-08T06:31:59.966Z,18.20
2018-07-08T06:34:28.605Z,18.30
2018-07-08T06:36:57.242Z,18.40
2018-07-08T06:39:25.824Z,18.60
2018-07-08T06:41:54.479Z,18.80
2018-07-08T06:44:23.099Z,18.90
2018-07-08T06:46:51.731Z,19.20
2018-07-08T06:49:20.350Z,19.30
2018-07-08T06:51:48.923Z,19.60
2018-07-08T06:54:17.500Z,19.70
2018-07-08T06:56:46.066Z,19.90
2018-07-08T06:59:14.637Z,20.20
2018-07-08T07:01:43.220Z,20.30
2018-07-08T07:04:12.782Z,20.40
2018-07-08T07:09:10.727Z,20.60
2018-07-08T07:11:39.987Z,20.70
2018-07-08T07:14:08.584Z,20.70
2018-07-08T07:16:37.616Z,20.70
2018-07-08T07:19:06.734Z,20.70
2018-07-08T07:21:35.402Z,20.80
2018-07-08T07:24:04.075Z,20.80
2018-07-08T07:26:32.652Z,20.70
2018-07-08T07:29:01.262Z,20.80
2018-07-08T07:31:29.911Z,20.70
2018-07-08T07:33:58.648Z,20.80
2018-07-08T07:36:27.631Z,20.90
2018-07-08T07:38:56.258Z,20.90
2018-07-08T07:41:24.875Z,21.10
2018-07-08T07:43:53.554Z,21.20
2018-07-08T07:46:22.207Z,21.30
2018-07-08T07:48:50.896Z,21.30
2018-07-08T07:51:19.604Z,21.50
2018-07-08T07:53:48.183Z,21.70
2018-07-08T07:56:16.758Z,21.80
2018-07-08T07:58:45.347Z,22.00
2018-07-08T08:01:13.965Z,22.20
2018-07-08T08:03:42.743Z,22.50
2018-07-08T08:06:11.490Z,22.80
2018-07-08T08:08:40.099Z,23.10
2018-07-08T08:11:09.308Z,23.00
2018-07-08T08:13:42.673Z,23.10
2018-07-08T08:16:11.191Z,23.10
2018-07-08T08:18:39.831Z,23.20
2018-07-08T08:21:08.854Z,23.20
2018-07-08T08:23:37.411Z,23.20
2018-07-08T08:26:06.042Z,23.30
2018-07-08T08:28:34.604Z,23.10
2018-07-08T08:31:03.300Z,22.90
2018-07-08T08:33:31.955Z,22.70
2018-07-08T08:36:00.675Z,22.60
2018-07-08T08:38:29.278Z,22.50
2018-07-08T08:40:57.912Z,22.30
2018-07-08T08:43:26.527Z,22.20
2018-07-08T08:45:55.194Z,22.20
2018-07-08T08:48:23.682Z,22.10
2018-07-08T08:50:52.219Z,22.00
2018-07-08T08:53:20.771Z,22.00
2018-07-08T08:55:49.411Z,21.80
2018-07-08T08:58:18.009Z,21.70
2018-07-08T09:00:46.575Z,21.60
2018-07-08T09:03:15.186Z,21.50
2018-07-08T09:05:43.829Z,21.40
2018-07-08T09:08:12.396Z,21.30
2018-07-08T09:10:41.515Z,21.30
2018-07-08T09:13:10.106Z,21.20
2018-07-08T09:15:38.685Z,21.20
2018-07-08T09:18:07.240Z,21.20
2018-07-08T09:20:35.862Z,21.10
2018-07-08T09:23:04.703Z,21.10
2018-07-08T09:25:33.319Z,21.10
2018-07-08T09:28:01.884Z,21.10
2018-07-08T09:30:30.488Z,21.10
2018-07-08T09:32:59.123Z,21.20
2018-07-08T09:35:27.677Z,21.30
2018-07-08T09:37:56.273Z,21.40
2018-07-08T09:40:24.905Z,21.50
2018-07-08T09:42:53.459Z,21.70
2018-07-08T09:45:22.046Z,21.80
2018-07-08T09:47:50.584Z,22.00
2018-07-08T09:52:47.363Z,22.20
2018-07-08T09:55:16.026Z,22.40
2018-07-08T09:57:44.640Z,22.40
2018-07-08T10:00:13.198Z,22.50
2018-07-08T10:02:41.783Z,22.50
2018-07-08T10:05:10.367Z,22.70
2018-07-08T10:07:38.930Z,22.70
2018-07-08T10:10:07.467Z,22.80
2018-07-08T10:12:36.039Z,22.80
2018-07-08T10:15:04.702Z,22.80
2018-07-08T10:20:02.162Z,22.80
2018-07-08T10:22:30.664Z,22.90
2018-07-08T10:24:59.278Z,23.20
2018-07-08T10:27:44.859Z,23.40
2018-07-08T10:30:13.576Z,23.70
2018-07-08T10:32:42.075Z,24.10
2018-07-08T10:36:20.904Z,24.40
2018-07-08T10:38:49.471Z,24.60
2018-07-08T10:41:18.046Z,25.00
2018-07-08T10:43:46.702Z,24.90
2018-07-08T10:46:15.275Z,25.10
2018-07-08T10:48:43.791Z,25.10
2018-07-08T10:51:12.336Z,25.10
2018-07-08T10:53:41.002Z,25.00
2018-07-08T10:56:09.566Z,24.90
2018-07-08T10:58:38.147Z,24.90
2018-07-08T11:01:06.712Z,24.60
2018-07-08T11:03:35.592Z,24.50
2018-07-08T11:06:04.368Z,24.30
2018-07-08T11:08:33.166Z,24.20
2018-07-08T11:11:01.910Z,24.30
2018-07-08T11:13:30.588Z,24.10
2018-07-08T11:15:59.326Z,24.00
2018-07-08T11:18:28.127Z,24.00
2018-07-08T11:20:56.954Z,24.00
2018-07-08T11:23:25.674Z,24.10
2018-07-08T11:25:54.440Z,24.10
2018-07-08T11:28:23.126Z,24.00
2018-07-08T11:30:51.821Z,24.10
2018-07-08T11:33:20.459Z,24.00
2018-07-08T11:35:49.275Z,24.10
2018-07-08T11:38:17.914Z,24.00
2018-07-08T11:40:46.672Z,24.00
2018-07-08T11:43:15.366Z,23.90
2018-07-08T11:45:44.055Z,23.70
2018-07-08T11:48:12.743Z,23.60
2018-07-08T11:50:41.579Z,23.30
2018-07-08T11:53:10.284Z,23.20
2018-07-08T11:55:39.011Z,23.30
2018-07-08T11:58:07.607Z,23.30
2018-07-08T12:00:36.746Z,23.20
2018-07-08T12:03:05.447Z,23.10
2018-07-08T12:05:34.289Z,23.00
2018-07-08T12:08:03.651Z,23.10
2018-07-08T12:10:32.529Z,23.30
2018-07-08T12:13:01.298Z,23.30
2018-07-08T12:15:30.281Z,23.40
2018-07-08T12:17:59.030Z,23.50
2018-07-08T12:20:31.378Z,23.60
2018-07-08T12:23:00.224Z,23.70
2018-07-08T12:25:29.187Z,23.70
2018-07-08T12:27:59.940Z,23.70
2018-07-08T12:30:29.401Z,23.70
2018-07-08T12:32:58.222Z,23.80
2018-07-08T12:35:27.007Z,23.80
2018-07-08T12:37:55.815Z,23.90
2018-07-08T12:40:24.627Z,23.90
2018-07-08T12:42:53.459Z,23.90
2018-07-08T12:45:22.215Z,24.00
2018-07-08T12:47:51.155Z,24.00
2018-07-08T12:50:19.974Z,24.10
2018-07-08T12:52:48.799Z,24.20
2018-07-08T12:55:17.544Z,24.30
2018-07-08T12:57:46.401Z,24.40
2018-07-08T13:00:15.808Z,24.40
2018-07-08T13:02:44.640Z,24.40
2018-07-08T13:05:13.402Z,24.50
2018-07-08T13:07:42.265Z,24.50
2018-07-08T13:10:11.132Z,24.50
2018-07-08T13:12:39.936Z,24.60
2018-07-08T13:15:08.962Z,24.70
2018-07-08T13:17:39.981Z,24.80
2018-07-08T13:20:09.413Z,24.80
2018-07-08T13:22:38.296Z,24.80
2018-07-08T13:25:07.252Z,24.80
2018-07-08T13:30:04.637Z,24.90
2018-07-08T13:32:33.404Z,25.00
2018-07-08T13:35:02.125Z,25.10
2018-07-08T13:37:30.963Z,25.20
2018-07-08T13:39:59.732Z,25.30
2018-07-08T13:42:30.048Z,25.40
2018-07-08T13:44:58.785Z,25.60
2018-07-08T13:47:27.494Z,25.80
2018-07-08T13:49:56.279Z,25.80
2018-07-08T13:52:24.991Z,25.70
2018-07-08T13:54:53.933Z,25.60
2018-07-08T13:57:22.718Z,25.70
2018-07-08T13:59:51.486Z,25.90
2018-07-08T14:02:20.207Z,26.00
2018-07-08T14:04:49.428Z,26.10
2018-07-08T14:07:18.474Z,26.20
2018-07-08T14:09:47.418Z,26.40
2018-07-08T14:12:16.278Z,26.40
2018-07-08T14:14:45.120Z,26.30
2018-07-08T14:17:13.819Z,26.10
2018-07-08T14:19:43.591Z,25.80
2018-07-08T14:22:12.715Z,25.70
2018-07-08T14:24:41.598Z,25.70
2018-07-08T14:27:10.311Z,25.50
2018-07-08T14:29:39.272Z,25.40
2018-07-08T14:32:08.164Z,25.20
2018-07-08T14:34:37.034Z,25.20
2018-07-08T14:37:05.853Z,25.10
2018-07-08T14:39:34.632Z,25.10
2018-07-08T14:42:03.678Z,25.00
2018-07-08T14:44:32.549Z,24.90
2018-07-08T14:47:01.234Z,24.90
2018-07-08T14:49:29.948Z,24.90
2018-07-08T14:51:58.672Z,24.80
2018-07-08T14:54:27.417Z,24.70
2018-07-08T14:56:56.231Z,24.70
2018-07-08T14:59:24.927Z,24.80
2018-07-08T15:01:53.718Z,24.80
2018-07-08T15:04:22.451Z,24.90
2018-07-08T15:06:51.256Z,24.90
2018-07-08T15:09:20.177Z,24.90
2018-07-08T15:11:48.929Z,24.90
2018-07-08T15:14:18.324Z,24.90
2018-07-08T15:16:47.129Z,24.80
2018-07-08T15:19:15.932Z,24.80
2018-07-08T15:24:12.990Z,24.80
2018-07-08T15:26:41.742Z,24.70
2018-07-08T15:29:10.598Z,24.70
2018-07-08T15:31:39.380Z,24.70
2018-07-08T15:34:08.134Z,24.70
2018-07-08T15:36:36.874Z,24.70
2018-07-08T15:39:06.922Z,24.60
2018-07-08T15:41:35.606Z,24.60
2018-07-08T15:44:04.500Z,24.70
2018-07-08T15:46:33.201Z,24.70
2018-07-08T15:49:02.032Z,24.80
2018-07-08T15:51:30.930Z,24.80
2018-07-08T15:53:59.908Z,24.80
2018-07-08T15:58:56.972Z,25.00
2018-07-08T16:01:25.692Z,25.00
2018-07-08T16:03:54.373Z,25.10
2018-07-08T16:06:23.146Z,25.10
2018-07-08T16:08:52.089Z,25.10
2018-07-08T16:11:20.926Z,25.10
2018-07-08T16:13:50.276Z,24.90
2018-07-08T16:16:18.860Z,24.80
2018-07-08T16:18:47.859Z,24.80
2018-07-08T16:21:16.777Z,24.70
2018-07-08T16:23:45.375Z,24.70
2018-07-08T16:26:14.257Z,24.70
2018-07-08T16:28:44.246Z,24.70
2018-07-08T16:33:43.210Z,24.60
2018-07-08T16:36:14.221Z,24.60
2018-07-08T16:38:43.858Z,24.50
2018-07-08T16:41:13.667Z,24.50
2018-07-08T16:43:43.576Z,24.40
2018-07-08T16:46:16.564Z,24.40
2018-07-08T16:48:46.499Z,24.40
2018-07-08T16:51:17.900Z,24.30
2018-07-08T16:53:47.210Z,24.30
2018-07-08T16:56:16.897Z,24.30
2018-07-08T16:58:46.225Z,24.30
2018-07-08T17:01:15.980Z,24.20
2018-07-08T17:03:45.941Z,24.10
2018-07-08T17:06:14.674Z,24.10
2018-07-08T17:08:43.414Z,24.10
2018-07-08T17:11:12.622Z,24.10
2018-07-08T17:13:41.806Z,24.10
2018-07-08T17:16:11.218Z,24.10
2018-07-08T17:18:40.721Z,24.10
2018-07-08T17:21:10.028Z,24.10
2018-07-08T17:23:39.008Z,24.10
2018-07-08T17:26:09.004Z,24.20
2018-07-08T17:28:38.512Z,24.10
2018-07-08T17:31:07.493Z,24.10
2018-07-08T17:33:36.480Z,24.10
2018-07-08T17:36:05.326Z,24.10
2018-07-08T17:38:34.320Z,24.10
2018-07-08T17:41:03.118Z,24.00
2018-07-08T17:43:32.066Z,24.00
2018-07-08T17:46:00.794Z,24.00
2018-07-08T17:48:29.628Z,24.00
2018-07-08T17:50:58.378Z,24.00
2018-07-08T17:53:27.171Z,24.00
2018-07-08T17:55:55.994Z,23.90
2018-07-08T17:58:24.778Z,23.90
2018-07-08T18:01:02.600Z,23.80
2018-07-08T18:03:32.032Z,23.80
2018-07-08T18:06:01.720Z,23.70
2018-07-08T18:08:30.804Z,23.70
2018-07-08T18:10:59.582Z,23.70
2018-07-08T18:13:29.479Z,23.60
2018-07-08T18:15:58.448Z,23.60
2018-07-08T18:18:27.383Z,23.60
2018-07-08T18:20:56.105Z,23.50
2018-07-08T18:23:25.541Z,23.40
2018-07-08T18:25:54.251Z,23.40
2018-07-08T18:28:23.045Z,23.30
2018-07-08T18:30:51.880Z,23.20
2018-07-08T18:33:20.634Z,23.10
2018-07-08T18:38:17.827Z,23.00
2018-07-08T18:40:46.830Z,22.90
2018-07-08T18:43:16.768Z,22.80
2018-07-08T18:45:46.292Z,22.70
2018-07-08T18:48:22.500Z,22.70
2018-07-08T18:50:51.249Z,22.60
2018-07-08T18:53:20.119Z,22.60
2018-07-08T18:55:48.863Z,22.50
2018-07-08T19:00:48.237Z,22.30
2018-07-08T19:03:17.088Z,22.20
2018-07-08T19:05:46.122Z,22.20
2018-07-08T19:08:15.059Z,22.10
2018-07-08T19:10:43.888Z,22.00
2018-07-08T19:13:12.668Z,22.00
2018-07-08T19:15:41.587Z,21.90
2018-07-08T19:18:10.569Z,21.80
2018-07-08T19:20:39.252Z,21.70
2018-07-08T19:23:08.116Z,21.70
2018-07-08T19:25:36.893Z,21.60
2018-07-08T19:28:05.768Z,21.60
2018-07-08T19:30:34.995Z,21.50
2018-07-08T19:35:32.080Z,21.50
2018-07-08T19:38:00.823Z,21.40
2018-07-08T19:40:29.597Z,21.40
2018-07-08T19:42:58.332Z,21.40
2018-07-08T19:45:27.020Z,21.30
2018-07-08T19:50:24.032Z,21.20
2018-07-08T19:52:53.087Z,21.20
2018-07-08T19:55:21.800Z,21.20
2018-07-08T19:57:50.579Z,21.10
2018-07-08T20:00:20.870Z,21.10
2018-07-08T20:02:50.721Z,21.00
2018-07-08T20:05:19.435Z,21.00
2018-07-08T20:07:48.234Z,20.90
2018-07-08T20:10:21.167Z,20.90
2018-07-08T20:12:49.984Z,20.90
2018-07-08T20:15:18.785Z,20.80
2018-07-08T20:17:47.533Z,20.80
2018-07-08T20:20:16.176Z,20.70
2018-07-08T20:22:44.895Z,20.70
2018-07-08T20:25:13.731Z,20.60
2018-07-08T20:27:42.533Z,20.60
2018-07-08T20:30:11.281Z,20.50
2018-07-08T20:32:40.096Z,20.40
2018-07-08T20:35:08.800Z,20.40
2018-07-08T20:37:37.558Z,20.30
2018-07-08T20:40:06.221Z,20.30
2018-07-08T20:42:37.525Z,20.20
2018-07-08T20:45:06.241Z,20.10
2018-07-08T20:47:34.941Z,20.00
2018-07-08T20:50:03.885Z,20.00
2018-07-08T20:52:32.496Z,19.90
2018-07-08T20:55:01.889Z,19.80
2018-07-08T20:57:30.851Z,19.70
2018-07-08T20:59:59.585Z,19.60
2018-07-08T21:02:28.334Z,19.60
2018-07-08T21:04:57.121Z,19.50
2018-07-08T21:07:25.787Z,19.40
2018-07-08T21:09:58.111Z,19.30
2018-07-08T21:12:27.006Z,19.20
2018-07-08T21:14:55.826Z,19.10
2018-07-08T21:17:26.347Z,19.10
2018-07-08T21:19:55.238Z,19.00
2018-07-08T21:22:24.015Z,19.00
2018-07-08T21:24:52.851Z,18.90
2018-07-08T21:27:21.655Z,18.80
2018-07-08T21:29:50.536Z,18.80
2018-07-08T21:32:19.996Z,18.80
2018-07-08T21:34:51.473Z,18.70
2018-07-08T21:37:21.133Z,18.70
2018-07-08T21:39:50.015Z,18.60
2018-07-08T21:42:18.807Z,18.60
2018-07-08T21:44:48.144Z,18.50
2018-07-08T21:47:20.157Z,18.50
2018-07-08T21:49:48.944Z,18.40
2018-07-08T21:54:47.258Z,18.30
2018-07-08T21:57:16.021Z,18.20
2018-07-08T21:59:44.672Z,18.20
2018-07-08T22:02:19.928Z,18.10
2018-07-08T22:04:48.907Z,18.10
2018-07-08T22:07:23.708Z,18.00
2018-07-08T22:09:53.757Z,18.00
2018-07-08T22:12:22.713Z,17.90
2018-07-08T22:14:51.483Z,17.90
2018-07-08T22:17:20.229Z,17.80
2018-07-08T22:19:49.002Z,17.80
2018-07-08T22:22:17.802Z,17.80
2018-07-08T22:24:46.639Z,17.70
2018-07-08T22:27:16.043Z,17.70
2018-07-08T22:29:45.260Z,17.60
2018-07-08T22:32:14.381Z,17.60
2018-07-08T22:34:43.194Z,17.60
2018-07-08T22:37:12.235Z,17.50
2018-07-08T22:39:41.018Z,17.50
2018-07-08T22:42:09.882Z,17.40
2018-07-08T22:44:40.028Z,17.40
2018-07-08T22:47:09.947Z,17.30
2018-07-08T22:49:39.085Z,17.30
2018-07-08T22:52:07.991Z,17.30
2018-07-08T22:54:36.611Z,17.20
2018-07-08T22:57:05.131Z,17.20
2018-07-08T22:59:43.789Z,17.10
2018-07-08T23:02:26.288Z,17.10
2018-07-08T23:04:54.886Z,17.00
2018-07-08T23:07:23.473Z,17.00
2018-07-08T23:09:52.386Z,17.00
2018-07-08T23:12:23.019Z,16.90
2018-07-08T23:14:52.870Z,16.90
2018-07-08T23:17:21.976Z,16.80
2018-07-08T23:19:50.661Z,16.80
2018-07-08T23:22:23.030Z,16.80
2018-07-08T23:24:52.235Z,16.80
2018-07-08T23:27:20.885Z,16.80
2018-07-08T23:29:49.646Z,16.70
2018-07-08T23:32:18.547Z,16.70
2018-07-08T23:34:47.240Z,16.70
2018-07-08T23:37:15.833Z,16.60
2018-07-08T23:39:44.453Z,16.50
2018-07-08T23:42:13.100Z,16.50
2018-07-08T23:44:41.653Z,16.50
2018-07-08T23:47:11.237Z,16.50
2018-07-08T23:49:39.806Z,16.40
2018-07-08T23:52:10.122Z,16.40
2018-07-08T23:54:39.609Z,16.40
2018-07-08T23:57:08.980Z,16.30
2018-07-08T23:59:37.948Z,16.30
